sensor_id;sensor_type;location;lat;lon;timestamp;temperature;humidity
25450;DHT22;13371;52.080;5.624;2023-04-24T00:00:04;10.80;99.90
25450;DHT22;13371;52.080;5.624;2023-04-24T00:02:34;10.80;99.90
25450;DHT22;13371;52.080;5.624;2023-04-24T00:05:04;10.70;99.90
25450;DHT22;13371;52.080;5.624;2023-04-24T00:07:29;10.70;99.90
25450;DHT22;13371;52.080;5.624;2023-04-24T00:09:55;11.10;99.90
25450;DHT22;13371;52.080;5.624;2023-04-24T00:12:21;11.20;99.90
25450;DHT22;13371;52.080;5.624;2023-04-24T00:14:46;11.10;99.90
25450;DHT22;13371;52.080;5.624;2023-04-24T00:17:12;10.90;99.90
25450;DHT22;13371;52.080;5.624;2023-04-24T00:19:38;10.80;99.90
25450;DHT22;13371;52.080;5.624;2023-04-24T00:22:04;10.90;99.90
25450;DHT22;13371;52.080;5.624;2023-04-24T00:24:29;10.90;99.90
25450;DHT22;13371;52.080;5.624;2023-04-24T00:26:55;10.90;99.90
25450;DHT22;13371;52.080;5.624;2023-04-24T00:29:21;11.10;99.90
25450;DHT22;13371;52.080;5.624;2023-04-24T00:31:47;11.30;99.90
25450;DHT22;13371;52.080;5.624;2023-04-24T00:34:13;11.40;99.90
25450;DHT22;13371;52.080;5.624;2023-04-24T00:36:39;11.50;99.90
25450;DHT22;13371;52.080;5.624;2023-04-24T00:39:05;11.40;99.90
25450;DHT22;13371;52.080;5.624;2023-04-24T00:41:31;11.40;99.90
25450;DHT22;13371;52.080;5.624;2023-04-24T00:43:56;11.10;99.90
25450;DHT22;13371;52.080;5.624;2023-04-24T00:46:22;11.00;99.90
25450;DHT22;13371;52.080;5.624;2023-04-24T00:48:48;11.00;99.90
25450;DHT22;13371;52.080;5.624;2023-04-24T00:51:13;11.00;99.90
25450;DHT22;13371;52.080;5.624;2023-04-24T00:53:39;11.10;99.90
25450;DHT22;13371;52.080;5.624;2023-04-24T00:56:05;11.20;99.90
25450;DHT22;13371;52.080;5.624;2023-04-24T00:58:30;11.10;99.90
25450;DHT22;13371;52.080;5.624;2023-04-24T01:00:57;11.20;99.90
25450;DHT22;13371;52.080;5.624;2023-04-24T01:03:29;11.40;99.90
25450;DHT22;13371;52.080;5.624;2023-04-24T01:05:55;11.40;99.90
25450;DHT22;13371;52.080;5.624;2023-04-24T01:08:23;11.30;99.90
25450;DHT22;13371;52.080;5.624;2023-04-24T01:10:51;11.50;99.90
25450;DHT22;13371;52.080;5.624;2023-04-24T01:13:18;11.40;99.90
25450;DHT22;13371;52.080;5.624;2023-04-24T01:15:45;11.50;99.90
25450;DHT22;13371;52.080;5.624;2023-04-24T01:18:11;11.50;99.90
25450;DHT22;13371;52.080;5.624;2023-04-24T01:20:39;11.50;99.90
25450;DHT22;13371;52.080;5.624;2023-04-24T01:23:05;11.70;99.90
25450;DHT22;13371;52.080;5.624;2023-04-24T01:25:31;11.80;99.90
25450;DHT22;13371;52.080;5.624;2023-04-24T01:27:57;11.60;99.90
25450;DHT22;13371;52.080;5.624;2023-04-24T01:30:22;11.80;99.90
25450;DHT22;13371;52.080;5.624;2023-04-24T01:32:48;11.60;99.90
25450;DHT22;13371;52.080;5.624;2023-04-24T01:35:14;11.70;99.90
25450;DHT22;13371;52.080;5.624;2023-04-24T01:37:40;11.80;99.90
25450;DHT22;13371;52.080;5.624;2023-04-24T01:40:06;11.70;99.90
25450;DHT22;13371;52.080;5.624;2023-04-24T01:42:33;11.80;99.90
25450;DHT22;13371;52.080;5.624;2023-04-24T01:44:59;11.60;99.90
25450;DHT22;13371;52.080;5.624;2023-04-24T01:47:26;11.60;99.90
25450;DHT22;13371;52.080;5.624;2023-04-24T01:49:51;11.80;99.90
25450;DHT22;13371;52.080;5.624;2023-04-24T01:52:18;12.00;99.90
25450;DHT22;13371;52.080;5.624;2023-04-24T01:54:44;12.00;99.90
25450;DHT22;13371;52.080;5.624;2023-04-24T01:57:10;11.80;99.90
25450;DHT22;13371;52.080;5.624;2023-04-24T01:59:35;11.90;99.90
25450;DHT22;13371;52.080;5.624;2023-04-24T02:02:02;11.70;99.90
25450;DHT22;13371;52.080;5.624;2023-04-24T02:04:28;11.90;99.90
25450;DHT22;13371;52.080;5.624;2023-04-24T02:06:53;11.90;99.90
25450;DHT22;13371;52.080;5.624;2023-04-24T02:09:19;12.20;99.90
25450;DHT22;13371;52.080;5.624;2023-04-24T02:11:45;12.20;99.90
25450;DHT22;13371;52.080;5.624;2023-04-24T02:14:10;12.20;99.90
25450;DHT22;13371;52.080;5.624;2023-04-24T02:16:36;11.80;99.90
25450;DHT22;13371;52.080;5.624;2023-04-24T02:19:02;11.70;99.90
25450;DHT22;13371;52.080;5.624;2023-04-24T02:21:28;11.90;99.90
25450;DHT22;13371;52.080;5.624;2023-04-24T02:23:54;12.00;99.90
25450;DHT22;13371;52.080;5.624;2023-04-24T02:26:19;12.10;99.90
25450;DHT22;13371;52.080;5.624;2023-04-24T02:28:45;12.20;99.90
25450;DHT22;13371;52.080;5.624;2023-04-24T02:31:10;12.20;99.90
25450;DHT22;13371;52.080;5.624;2023-04-24T02:33:36;11.90;99.90
25450;DHT22;13371;52.080;5.624;2023-04-24T02:36:02;11.70;99.90
25450;DHT22;13371;52.080;5.624;2023-04-24T02:38:29;11.80;99.90
25450;DHT22;13371;52.080;5.624;2023-04-24T02:40:55;11.80;99.90
25450;DHT22;13371;52.080;5.624;2023-04-24T02:43:20;11.90;99.90
25450;DHT22;13371;52.080;5.624;2023-04-24T02:45:46;11.70;99.90
25450;DHT22;13371;52.080;5.624;2023-04-24T02:48:11;11.80;99.90
25450;DHT22;13371;52.080;5.624;2023-04-24T02:50:37;12.00;99.90
25450;DHT22;13371;52.080;5.624;2023-04-24T02:53:03;11.90;99.90
25450;DHT22;13371;52.080;5.624;2023-04-24T02:55:28;11.80;99.90
25450;DHT22;13371;52.080;5.624;2023-04-24T02:57:54;11.50;99.90
25450;DHT22;13371;52.080;5.624;2023-04-24T03:00:20;11.40;99.90
25450;DHT22;13371;52.080;5.624;2023-04-24T03:02:46;11.60;99.90
25450;DHT22;13371;52.080;5.624;2023-04-24T03:05:11;11.60;99.90
25450;DHT22;13371;52.080;5.624;2023-04-24T03:07:39;11.50;99.90
25450;DHT22;13371;52.080;5.624;2023-04-24T03:10:06;11.40;99.90
25450;DHT22;13371;52.080;5.624;2023-04-24T03:12:32;11.60;99.90
25450;DHT22;13371;52.080;5.624;2023-04-24T03:14:57;11.70;99.90
25450;DHT22;13371;52.080;5.624;2023-04-24T03:17:23;11.60;99.90
25450;DHT22;13371;52.080;5.624;2023-04-24T03:19:49;11.60;99.90
25450;DHT22;13371;52.080;5.624;2023-04-24T03:22:14;11.60;99.90
25450;DHT22;13371;52.080;5.624;2023-04-24T03:24:40;11.60;99.90
25450;DHT22;13371;52.080;5.624;2023-04-24T03:27:05;11.90;99.90
25450;DHT22;13371;52.080;5.624;2023-04-24T03:29:31;12.20;99.90
25450;DHT22;13371;52.080;5.624;2023-04-24T03:31:57;12.50;99.90
25450;DHT22;13371;52.080;5.624;2023-04-24T03:34:22;12.60;99.90
25450;DHT22;13371;52.080;5.624;2023-04-24T03:36:48;12.20;99.90
25450;DHT22;13371;52.080;5.624;2023-04-24T03:39:13;12.10;99.90
25450;DHT22;13371;52.080;5.624;2023-04-24T03:41:39;12.10;99.90
25450;DHT22;13371;52.080;5.624;2023-04-24T03:44:04;12.00;99.90
25450;DHT22;13371;52.080;5.624;2023-04-24T03:46:30;12.00;99.90
25450;DHT22;13371;52.080;5.624;2023-04-24T03:48:55;11.80;99.90
25450;DHT22;13371;52.080;5.624;2023-04-24T03:51:21;11.60;99.90
25450;DHT22;13371;52.080;5.624;2023-04-24T03:53:47;11.60;99.90
25450;DHT22;13371;52.080;5.624;2023-04-24T03:56:13;11.40;99.90
25450;DHT22;13371;52.080;5.624;2023-04-24T03:58:38;11.70;99.90
25450;DHT22;13371;52.080;5.624;2023-04-24T04:01:04;11.80;99.90
25450;DHT22;13371;52.080;5.624;2023-04-24T04:03:30;12.00;99.90
25450;DHT22;13371;52.080;5.624;2023-04-24T04:05:56;12.20;99.90
25450;DHT22;13371;52.080;5.624;2023-04-24T04:08:22;12.20;99.90
25450;DHT22;13371;52.080;5.624;2023-04-24T04:10:47;12.00;99.90
25450;DHT22;13371;52.080;5.624;2023-04-24T04:13:13;12.20;99.90
25450;DHT22;13371;52.080;5.624;2023-04-24T04:15:38;12.10;99.90
25450;DHT22;13371;52.080;5.624;2023-04-24T04:18:04;12.30;99.90
25450;DHT22;13371;52.080;5.624;2023-04-24T04:20:29;12.20;99.90
25450;DHT22;13371;52.080;5.624;2023-04-24T04:22:55;11.90;99.90
25450;DHT22;13371;52.080;5.624;2023-04-24T04:25:21;11.80;99.90
25450;DHT22;13371;52.080;5.624;2023-04-24T04:27:46;11.90;99.90
25450;DHT22;13371;52.080;5.624;2023-04-24T04:30:14;12.00;99.90
25450;DHT22;13371;52.080;5.624;2023-04-24T04:32:40;12.10;99.90
25450;DHT22;13371;52.080;5.624;2023-04-24T04:35:06;12.30;99.90
25450;DHT22;13371;52.080;5.624;2023-04-24T04:37:33;12.40;99.90
25450;DHT22;13371;52.080;5.624;2023-04-24T04:39:59;12.50;99.90
25450;DHT22;13371;52.080;5.624;2023-04-24T04:42:26;12.70;99.90
25450;DHT22;13371;52.080;5.624;2023-04-24T04:44:52;12.60;99.90
25450;DHT22;13371;52.080;5.624;2023-04-24T04:47:20;12.80;99.90
25450;DHT22;13371;52.080;5.624;2023-04-24T04:49:47;12.60;99.90
25450;DHT22;13371;52.080;5.624;2023-04-24T04:52:13;12.80;99.90
25450;DHT22;13371;52.080;5.624;2023-04-24T04:54:39;12.80;99.90
25450;DHT22;13371;52.080;5.624;2023-04-24T04:57:05;12.90;99.90
25450;DHT22;13371;52.080;5.624;2023-04-24T04:59:31;12.70;99.90
25450;DHT22;13371;52.080;5.624;2023-04-24T05:01:56;12.90;99.90
25450;DHT22;13371;52.080;5.624;2023-04-24T05:04:22;13.10;99.90
25450;DHT22;13371;52.080;5.624;2023-04-24T05:06:47;13.00;99.90
25450;DHT22;13371;52.080;5.624;2023-04-24T05:09:13;12.90;99.90
25450;DHT22;13371;52.080;5.624;2023-04-24T05:11:38;12.90;99.90
25450;DHT22;13371;52.080;5.624;2023-04-24T05:14:04;12.90;99.90
25450;DHT22;13371;52.080;5.624;2023-04-24T05:16:30;12.60;99.90
25450;DHT22;13371;52.080;5.624;2023-04-24T05:18:56;12.70;99.90
25450;DHT22;13371;52.080;5.624;2023-04-24T05:21:22;12.90;99.90
25450;DHT22;13371;52.080;5.624;2023-04-24T05:23:47;13.10;99.90
25450;DHT22;13371;52.080;5.624;2023-04-24T05:26:13;13.10;99.90
25450;DHT22;13371;52.080;5.624;2023-04-24T05:28:39;13.10;99.90
25450;DHT22;13371;52.080;5.624;2023-04-24T05:31:05;12.80;99.90
25450;DHT22;13371;52.080;5.624;2023-04-24T05:33:32;12.80;99.90
25450;DHT22;13371;52.080;5.624;2023-04-24T05:35:57;12.90;99.90
25450;DHT22;13371;52.080;5.624;2023-04-24T05:38:23;12.80;99.90
25450;DHT22;13371;52.080;5.624;2023-04-24T05:40:48;12.90;99.90
25450;DHT22;13371;52.080;5.624;2023-04-24T05:43:14;12.80;99.90
25450;DHT22;13371;52.080;5.624;2023-04-24T05:45:40;12.80;99.90
25450;DHT22;13371;52.080;5.624;2023-04-24T05:48:05;12.80;99.90
25450;DHT22;13371;52.080;5.624;2023-04-24T05:50:31;12.90;99.90
25450;DHT22;13371;52.080;5.624;2023-04-24T05:52:57;12.80;99.90
25450;DHT22;13371;52.080;5.624;2023-04-24T05:55:24;12.70;99.90
25450;DHT22;13371;52.080;5.624;2023-04-24T05:57:50;13.00;99.90
25450;DHT22;13371;52.080;5.624;2023-04-24T06:00:16;13.20;99.90
25450;DHT22;13371;52.080;5.624;2023-04-24T06:02:43;13.30;99.90
25450;DHT22;13371;52.080;5.624;2023-04-24T06:05:08;13.20;99.90
25450;DHT22;13371;52.080;5.624;2023-04-24T06:07:34;13.30;99.90
25450;DHT22;13371;52.080;5.624;2023-04-24T06:10:00;13.10;99.90
25450;DHT22;13371;52.080;5.624;2023-04-24T06:12:26;13.00;99.90
25450;DHT22;13371;52.080;5.624;2023-04-24T06:14:52;12.70;99.90
25450;DHT22;13371;52.080;5.624;2023-04-24T06:17:18;12.90;99.90
25450;DHT22;13371;52.080;5.624;2023-04-24T06:19:44;12.80;99.90
25450;DHT22;13371;52.080;5.624;2023-04-24T06:22:09;12.60;99.90
25450;DHT22;13371;52.080;5.624;2023-04-24T06:24:35;12.80;99.90
25450;DHT22;13371;52.080;5.624;2023-04-24T06:27:00;12.80;99.90
25450;DHT22;13371;52.080;5.624;2023-04-24T06:29:26;12.80;99.90
25450;DHT22;13371;52.080;5.624;2023-04-24T06:31:52;12.70;99.90
25450;DHT22;13371;52.080;5.624;2023-04-24T06:34:18;12.30;99.90
25450;DHT22;13371;52.080;5.624;2023-04-24T06:36:43;12.40;99.90
25450;DHT22;13371;52.080;5.624;2023-04-24T06:39:09;12.50;99.90
25450;DHT22;13371;52.080;5.624;2023-04-24T06:41:34;12.40;99.90
25450;DHT22;13371;52.080;5.624;2023-04-24T06:44:01;12.70;99.90
25450;DHT22;13371;52.080;5.624;2023-04-24T06:46:26;12.90;99.90
25450;DHT22;13371;52.080;5.624;2023-04-24T06:48:53;12.70;99.90
25450;DHT22;13371;52.080;5.624;2023-04-24T06:51:26;12.80;99.90
25450;DHT22;13371;52.080;5.624;2023-04-24T06:53:52;12.90;99.90
25450;DHT22;13371;52.080;5.624;2023-04-24T06:56:19;12.50;99.90
25450;DHT22;13371;52.080;5.624;2023-04-24T06:58:44;12.50;99.90
25450;DHT22;13371;52.080;5.624;2023-04-24T07:01:10;12.60;99.90
25450;DHT22;13371;52.080;5.624;2023-04-24T07:03:36;12.50;99.90
25450;DHT22;13371;52.080;5.624;2023-04-24T07:06:02;12.30;99.90
25450;DHT22;13371;52.080;5.624;2023-04-24T07:08:29;12.20;99.90
25450;DHT22;13371;52.080;5.624;2023-04-24T07:10:56;12.00;99.90
25450;DHT22;13371;52.080;5.624;2023-04-24T07:13:22;11.80;99.90
25450;DHT22;13371;52.080;5.624;2023-04-24T07:15:48;11.70;99.90
25450;DHT22;13371;52.080;5.624;2023-04-24T07:18:19;11.60;99.90
25450;DHT22;13371;52.080;5.624;2023-04-24T07:20:45;11.70;99.90
25450;DHT22;13371;52.080;5.624;2023-04-24T07:23:11;11.60;99.90
25450;DHT22;13371;52.080;5.624;2023-04-24T07:25:36;11.40;99.90
25450;DHT22;13371;52.080;5.624;2023-04-24T07:28:03;11.30;99.90
25450;DHT22;13371;52.080;5.624;2023-04-24T07:30:30;11.40;99.90
25450;DHT22;13371;52.080;5.624;2023-04-24T07:32:55;11.40;99.90
25450;DHT22;13371;52.080;5.624;2023-04-24T07:35:21;11.40;99.90
25450;DHT22;13371;52.080;5.624;2023-04-24T07:37:48;11.20;99.90
25450;DHT22;13371;52.080;5.624;2023-04-24T07:40:14;11.10;99.90
25450;DHT22;13371;52.080;5.624;2023-04-24T07:42:39;10.90;99.90
25450;DHT22;13371;52.080;5.624;2023-04-24T07:45:06;11.00;99.90
25450;DHT22;13371;52.080;5.624;2023-04-24T07:47:32;11.00;99.90
25450;DHT22;13371;52.080;5.624;2023-04-24T07:49:58;10.90;99.90
25450;DHT22;13371;52.080;5.624;2023-04-24T07:52:24;10.90;99.90
25450;DHT22;13371;52.080;5.624;2023-04-24T07:54:50;11.00;99.90
25450;DHT22;13371;52.080;5.624;2023-04-24T07:57:16;10.90;99.90
25450;DHT22;13371;52.080;5.624;2023-04-24T07:59:42;11.00;99.90
25450;DHT22;13371;52.080;5.624;2023-04-24T08:02:07;11.20;99.90
25450;DHT22;13371;52.080;5.624;2023-04-24T08:04:33;11.10;99.90
25450;DHT22;13371;52.080;5.624;2023-04-24T08:06:59;11.00;99.90
25450;DHT22;13371;52.080;5.624;2023-04-24T08:09:24;10.90;99.90
25450;DHT22;13371;52.080;5.624;2023-04-24T08:11:50;10.90;99.90
25450;DHT22;13371;52.080;5.624;2023-04-24T08:14:16;10.90;99.90
25450;DHT22;13371;52.080;5.624;2023-04-24T08:16:41;11.10;99.90
25450;DHT22;13371;52.080;5.624;2023-04-24T08:19:07;11.10;99.90
25450;DHT22;13371;52.080;5.624;2023-04-24T08:21:33;11.10;99.90
25450;DHT22;13371;52.080;5.624;2023-04-24T08:23:59;11.10;99.90
25450;DHT22;13371;52.080;5.624;2023-04-24T08:26:24;11.40;99.90
25450;DHT22;13371;52.080;5.624;2023-04-24T08:28:50;11.50;99.90
25450;DHT22;13371;52.080;5.624;2023-04-24T08:31:16;11.60;99.90
25450;DHT22;13371;52.080;5.624;2023-04-24T08:33:41;11.40;99.90
25450;DHT22;13371;52.080;5.624;2023-04-24T08:36:07;11.50;99.90
25450;DHT22;13371;52.080;5.624;2023-04-24T08:38:33;11.40;99.90
25450;DHT22;13371;52.080;5.624;2023-04-24T08:41:00;11.20;99.90
25450;DHT22;13371;52.080;5.624;2023-04-24T08:43:26;11.10;99.90
25450;DHT22;13371;52.080;5.624;2023-04-24T08:45:54;10.90;99.90
25450;DHT22;13371;52.080;5.624;2023-04-24T08:48:22;10.70;99.90
25450;DHT22;13371;52.080;5.624;2023-04-24T08:50:50;10.30;99.90
25450;DHT22;13371;52.080;5.624;2023-04-24T08:53:16;10.40;99.90
25450;DHT22;13371;52.080;5.624;2023-04-24T08:55:43;10.40;99.90
25450;DHT22;13371;52.080;5.624;2023-04-24T08:58:11;10.20;99.90
25450;DHT22;13371;52.080;5.624;2023-04-24T09:00:39;10.30;99.90
25450;DHT22;13371;52.080;5.624;2023-04-24T09:03:05;10.40;99.90
25450;DHT22;13371;52.080;5.624;2023-04-24T09:05:32;10.60;99.90
25450;DHT22;13371;52.080;5.624;2023-04-24T09:07:59;10.70;99.90
25450;DHT22;13371;52.080;5.624;2023-04-24T09:10:27;10.90;99.90
25450;DHT22;13371;52.080;5.624;2023-04-24T09:12:56;10.80;99.90
25450;DHT22;13371;52.080;5.624;2023-04-24T09:15:24;10.80;99.90
25450;DHT22;13371;52.080;5.624;2023-04-24T09:17:50;10.70;99.90
25450;DHT22;13371;52.080;5.624;2023-04-24T09:20:15;10.40;99.90
25450;DHT22;13371;52.080;5.624;2023-04-24T09:22:42;10.40;99.90
25450;DHT22;13371;52.080;5.624;2023-04-24T09:25:09;10.40;99.90
25450;DHT22;13371;52.080;5.624;2023-04-24T09:27:42;10.40;99.90
25450;DHT22;13371;52.080;5.624;2023-04-24T09:30:09;10.50;99.90
25450;DHT22;13371;52.080;5.624;2023-04-24T09:32:35;10.70;99.90
25450;DHT22;13371;52.080;5.624;2023-04-24T09:35:10;10.80;99.90
25450;DHT22;13371;52.080;5.624;2023-04-24T09:37:46;10.60;99.90
25450;DHT22;13371;52.080;5.624;2023-04-24T09:40:16;10.80;99.90
25450;DHT22;13371;52.080;5.624;2023-04-24T09:42:51;10.80;99.90
25450;DHT22;13371;52.080;5.624;2023-04-24T09:45:17;10.90;99.90
25450;DHT22;13371;52.080;5.624;2023-04-24T09:47:42;11.20;99.90
25450;DHT22;13371;52.080;5.624;2023-04-24T09:50:13;11.00;99.90
25450;DHT22;13371;52.080;5.624;2023-04-24T09:52:56;11.10;99.90
25450;DHT22;13371;52.080;5.624;2023-04-24T09:55:22;11.30;99.90
25450;DHT22;13371;52.080;5.624;2023-04-24T09:57:58;11.50;99.90
25450;DHT22;13371;52.080;5.624;2023-04-24T10:00:27;11.40;99.90
25450;DHT22;13371;52.080;5.624;2023-04-24T10:03:04;11.60;99.90
25450;DHT22;13371;52.080;5.624;2023-04-24T10:05:34;11.70;99.90
25450;DHT22;13371;52.080;5.624;2023-04-24T10:08:05;11.60;99.90
25450;DHT22;13371;52.080;5.624;2023-04-24T10:10:31;11.60;99.90
25450;DHT22;13371;52.080;5.624;2023-04-24T10:12:57;11.50;99.90
25450;DHT22;13371;52.080;5.624;2023-04-24T10:15:24;11.30;99.90
25450;DHT22;13371;52.080;5.624;2023-04-24T10:17:51;11.40;99.90
25450;DHT22;13371;52.080;5.624;2023-04-24T10:20:38;11.00;99.90
25450;DHT22;13371;52.080;5.624;2023-04-24T10:23:04;10.90;99.90
25450;DHT22;13371;52.080;5.624;2023-04-24T10:25:32;10.90;99.90
25450;DHT22;13371;52.080;5.624;2023-04-24T10:27:59;10.90;99.90
25450;DHT22;13371;52.080;5.624;2023-04-24T10:30:30;11.30;99.90
25450;DHT22;13371;52.080;5.624;2023-04-24T10:32:56;11.40;99.90
25450;DHT22;13371;52.080;5.624;2023-04-24T10:35:22;11.40;99.90
25450;DHT22;13371;52.080;5.624;2023-04-24T10:37:59;11.40;99.90
25450;DHT22;13371;52.080;5.624;2023-04-24T10:40:32;11.60;99.90
25450;DHT22;13371;52.080;5.624;2023-04-24T10:42:59;11.70;99.90
25450;DHT22;13371;52.080;5.624;2023-04-24T10:45:25;11.60;99.90
25450;DHT22;13371;52.080;5.624;2023-04-24T10:47:58;11.50;99.90
25450;DHT22;13371;52.080;5.624;2023-04-24T10:50:41;11.40;99.90
25450;DHT22;13371;52.080;5.624;2023-04-24T10:53:22;11.30;99.90
25450;DHT22;13371;52.080;5.624;2023-04-24T10:56:06;11.30;99.90
25450;DHT22;13371;52.080;5.624;2023-04-24T10:58:51;11.50;99.90
25450;DHT22;13371;52.080;5.624;2023-04-24T11:01:31;11.60;99.90
25450;DHT22;13371;52.080;5.624;2023-04-24T11:03:59;11.80;99.90
25450;DHT22;13371;52.080;5.624;2023-04-24T11:06:36;12.40;99.90
25450;DHT22;13371;52.080;5.624;2023-04-24T11:09:10;12.40;99.90
25450;DHT22;13371;52.080;5.624;2023-04-24T11:11:38;12.30;99.90
25450;DHT22;13371;52.080;5.624;2023-04-24T11:14:09;12.40;99.90
25450;DHT22;13371;52.080;5.624;2023-04-24T11:16:43;12.40;99.90
25450;DHT22;13371;52.080;5.624;2023-04-24T11:21:54;12.40;99.90
25450;DHT22;13371;52.080;5.624;2023-04-24T11:27:05;12.30;99.90
25450;DHT22;13371;52.080;5.624;2023-04-24T11:29:59;12.10;99.90
25450;DHT22;13371;52.080;5.624;2023-04-24T11:34:56;12.40;99.90
25450;DHT22;13371;52.080;5.624;2023-04-24T11:37:23;12.40;99.90
25450;DHT22;13371;52.080;5.624;2023-04-24T11:39:58;12.30;99.90
25450;DHT22;13371;52.080;5.624;2023-04-24T11:42:23;12.00;99.90
25450;DHT22;13371;52.080;5.624;2023-04-24T11:44:55;11.80;99.90
25450;DHT22;13371;52.080;5.624;2023-04-24T11:47:30;11.50;99.90
25450;DHT22;13371;52.080;5.624;2023-04-24T11:49:58;11.40;99.90
25450;DHT22;13371;52.080;5.624;2023-04-24T11:52:25;11.60;99.90
25450;DHT22;13371;52.080;5.624;2023-04-24T11:54:50;11.90;99.90
25450;DHT22;13371;52.080;5.624;2023-04-24T11:57:19;11.80;99.90
25450;DHT22;13371;52.080;5.624;2023-04-24T11:59:45;12.20;99.90
25450;DHT22;13371;52.080;5.624;2023-04-24T12:02:20;12.50;99.90
25450;DHT22;13371;52.080;5.624;2023-04-24T12:04:47;12.50;99.90
25450;DHT22;13371;52.080;5.624;2023-04-24T12:07:14;12.60;99.90
25450;DHT22;13371;52.080;5.624;2023-04-24T12:10:01;12.70;99.90
25450;DHT22;13371;52.080;5.624;2023-04-24T12:12:35;12.50;99.90
25450;DHT22;13371;52.080;5.624;2023-04-24T12:15:09;12.30;99.90
25450;DHT22;13371;52.080;5.624;2023-04-24T12:17:41;12.40;99.90
25450;DHT22;13371;52.080;5.624;2023-04-24T12:20:10;12.60;99.90
25450;DHT22;13371;52.080;5.624;2023-04-24T12:25:14;12.50;99.90
25450;DHT22;13371;52.080;5.624;2023-04-24T12:27:43;12.80;99.90
25450;DHT22;13371;52.080;5.624;2023-04-24T12:30:18;12.80;99.50
25450;DHT22;13371;52.080;5.624;2023-04-24T12:32:47;12.50;99.90
25450;DHT22;13371;52.080;5.624;2023-04-24T12:35:19;12.50;99.90
25450;DHT22;13371;52.080;5.624;2023-04-24T12:37:46;12.30;99.90
25450;DHT22;13371;52.080;5.624;2023-04-24T12:40:12;12.10;99.90
25450;DHT22;13371;52.080;5.624;2023-04-24T12:45:11;12.20;99.90
25450;DHT22;13371;52.080;5.624;2023-04-24T12:47:38;12.30;99.90
25450;DHT22;13371;52.080;5.624;2023-04-24T12:50:08;12.20;99.80
25450;DHT22;13371;52.080;5.624;2023-04-24T12:52:39;12.40;99.80
25450;DHT22;13371;52.080;5.624;2023-04-24T12:55:09;12.70;99.90
25450;DHT22;13371;52.080;5.624;2023-04-24T12:57:43;12.80;99.90
25450;DHT22;13371;52.080;5.624;2023-04-24T13:00:09;12.80;99.20
25450;DHT22;13371;52.080;5.624;2023-04-24T13:02:35;12.80;99.80
25450;DHT22;13371;52.080;5.624;2023-04-24T13:05:05;12.90;98.10
25450;DHT22;13371;52.080;5.624;2023-04-24T13:07:30;13.00;97.10
25450;DHT22;13371;52.080;5.624;2023-04-24T13:09:56;12.70;98.20
25450;DHT22;13371;52.080;5.624;2023-04-24T13:12:23;12.40;97.70
25450;DHT22;13371;52.080;5.624;2023-04-24T13:14:52;12.40;99.50
25450;DHT22;13371;52.080;5.624;2023-04-24T13:17:18;12.40;99.40
25450;DHT22;13371;52.080;5.624;2023-04-24T13:19:44;12.10;98.50
25450;DHT22;13371;52.080;5.624;2023-04-24T13:22:11;11.80;99.70
25450;DHT22;13371;52.080;5.624;2023-04-24T13:24:37;11.50;99.90
25450;DHT22;13371;52.080;5.624;2023-04-24T13:27:11;11.50;99.90
25450;DHT22;13371;52.080;5.624;2023-04-24T13:29:37;11.30;99.90
25450;DHT22;13371;52.080;5.624;2023-04-24T13:32:03;11.10;99.90
25450;DHT22;13371;52.080;5.624;2023-04-24T13:34:28;11.10;99.90
25450;DHT22;13371;52.080;5.624;2023-04-24T13:36:56;11.30;99.90
25450;DHT22;13371;52.080;5.624;2023-04-24T13:39:22;11.40;99.90
25450;DHT22;13371;52.080;5.624;2023-04-24T13:41:48;11.40;99.90
25450;DHT22;13371;52.080;5.624;2023-04-24T13:44:17;11.50;99.90
25450;DHT22;13371;52.080;5.624;2023-04-24T13:46:44;12.10;99.90
25450;DHT22;13371;52.080;5.624;2023-04-24T13:49:16;12.70;99.90
25450;DHT22;13371;52.080;5.624;2023-04-24T13:51:44;13.00;99.90
25450;DHT22;13371;52.080;5.624;2023-04-24T13:54:27;13.00;99.40
25450;DHT22;13371;52.080;5.624;2023-04-24T13:56:57;13.00;98.00
25450;DHT22;13371;52.080;5.624;2023-04-24T13:59:23;12.90;98.20
25450;DHT22;13371;52.080;5.624;2023-04-24T14:01:49;12.80;98.30
25450;DHT22;13371;52.080;5.624;2023-04-24T14:04:15;12.90;99.90
25450;DHT22;13371;52.080;5.624;2023-04-24T14:06:46;13.00;98.40
25450;DHT22;13371;52.080;5.624;2023-04-24T14:09:14;12.70;97.20
25450;DHT22;13371;52.080;5.624;2023-04-24T14:11:58;12.60;97.40
25450;DHT22;13371;52.080;5.624;2023-04-24T14:14:32;12.50;96.10
25450;DHT22;13371;52.080;5.624;2023-04-24T14:16:58;12.30;96.60
25450;DHT22;13371;52.080;5.624;2023-04-24T14:19:23;12.50;97.90
25450;DHT22;13371;52.080;5.624;2023-04-24T14:21:52;12.60;97.90
25450;DHT22;13371;52.080;5.624;2023-04-24T14:24:43;13.10;97.30
25450;DHT22;13371;52.080;5.624;2023-04-24T14:27:12;13.40;95.40
25450;DHT22;13371;52.080;5.624;2023-04-24T14:29:41;13.30;94.20
25450;DHT22;13371;52.080;5.624;2023-04-24T14:32:56;13.00;94.00
25450;DHT22;13371;52.080;5.624;2023-04-24T14:35:45;12.70;94.70
25450;DHT22;13371;52.080;5.624;2023-04-24T14:38:37;12.70;94.50
25450;DHT22;13371;52.080;5.624;2023-04-24T14:41:03;12.30;94.60
25450;DHT22;13371;52.080;5.624;2023-04-24T14:43:34;12.30;96.30
25450;DHT22;13371;52.080;5.624;2023-04-24T14:46:00;12.80;97.00
25450;DHT22;13371;52.080;5.624;2023-04-24T14:48:26;13.10;96.20
25450;DHT22;13371;52.080;5.624;2023-04-24T14:50:52;12.70;94.40
25450;DHT22;13371;52.080;5.624;2023-04-24T14:53:17;12.80;95.70
25450;DHT22;13371;52.080;5.624;2023-04-24T14:55:44;12.60;94.50
25450;DHT22;13371;52.080;5.624;2023-04-24T14:58:09;12.40;95.60
25450;DHT22;13371;52.080;5.624;2023-04-24T15:00:35;12.50;96.00
25450;DHT22;13371;52.080;5.624;2023-04-24T15:03:01;12.80;96.70
25450;DHT22;13371;52.080;5.624;2023-04-24T15:05:26;12.70;95.90
25450;DHT22;13371;52.080;5.624;2023-04-24T15:07:52;12.70;95.50
25450;DHT22;13371;52.080;5.624;2023-04-24T15:10:18;12.60;95.60
25450;DHT22;13371;52.080;5.624;2023-04-24T15:12:43;12.70;95.80
25450;DHT22;13371;52.080;5.624;2023-04-24T15:15:09;12.60;95.00
25450;DHT22;13371;52.080;5.624;2023-04-24T15:17:35;12.60;95.40
25450;DHT22;13371;52.080;5.624;2023-04-24T15:20:01;13.00;96.20
25450;DHT22;13371;52.080;5.624;2023-04-24T15:22:26;13.30;95.20
25450;DHT22;13371;52.080;5.624;2023-04-24T15:24:52;13.20;94.20
25450;DHT22;13371;52.080;5.624;2023-04-24T15:27:18;13.10;94.30
25450;DHT22;13371;52.080;5.624;2023-04-24T15:29:43;13.20;93.70
25450;DHT22;13371;52.080;5.624;2023-04-24T15:32:09;13.00;95.00
25450;DHT22;13371;52.080;5.624;2023-04-24T15:34:35;12.80;98.50
25450;DHT22;13371;52.080;5.624;2023-04-24T15:37:00;12.60;99.10
25450;DHT22;13371;52.080;5.624;2023-04-24T15:39:26;12.30;99.60
25450;DHT22;13371;52.080;5.624;2023-04-24T15:41:52;12.20;99.90
25450;DHT22;13371;52.080;5.624;2023-04-24T15:44:19;11.90;99.90